sensor_id;sensor_type;location;lat;lon;timestamp;P1;durP1;ratioP1;P2;durP2;ratioP2
69894;SDS011;57172;52.034;5.090;2023-04-15T00:01:00;15.50;;;7.05;;
69894;SDS011;57172;52.034;5.090;2023-04-15T00:03:27;11.25;;;6.45;;
69894;SDS011;57172;52.034;5.090;2023-04-15T00:05:55;13.27;;;6.40;;
69894;SDS011;57172;52.034;5.090;2023-04-15T00:08:23;12.48;;;6.50;;
69894;SDS011;57172;52.034;5.090;2023-04-15T00:10:49;10.40;;;6.40;;
69894;SDS011;57172;52.034;5.090;2023-04-15T00:13:16;12.88;;;6.70;;
69894;SDS011;57172;52.034;5.090;2023-04-15T00:15:43;10.85;;;6.28;;
69894;SDS011;57172;52.034;5.090;2023-04-15T00:18:10;13.32;;;6.60;;
69894;SDS011;57172;52.034;5.090;2023-04-15T00:20:37;12.43;;;6.40;;
69894;SDS011;57172;52.034;5.090;2023-04-15T00:23:04;12.60;;;6.50;;
69894;SDS011;57172;52.034;5.090;2023-04-15T00:25:30;11.82;;;6.40;;
69894;SDS011;57172;52.034;5.090;2023-04-15T00:27:58;12.55;;;6.38;;
69894;SDS011;57172;52.034;5.090;2023-04-15T00:30:25;12.10;;;6.70;;
69894;SDS011;57172;52.034;5.090;2023-04-15T00:32:52;13.95;;;7.00;;
69894;SDS011;57172;52.034;5.090;2023-04-15T00:35:20;13.63;;;6.60;;
69894;SDS011;57172;52.034;5.090;2023-04-15T00:37:49;12.02;;;6.60;;
69894;SDS011;57172;52.034;5.090;2023-04-15T00:40:17;13.05;;;6.95;;
69894;SDS011;57172;52.034;5.090;2023-04-15T00:42:46;12.05;;;6.50;;
69894;SDS011;57172;52.034;5.090;2023-04-15T00:45:13;15.38;;;6.72;;
69894;SDS011;57172;52.034;5.090;2023-04-15T00:47:41;14.50;;;6.60;;
69894;SDS011;57172;52.034;5.090;2023-04-15T00:50:09;10.55;;;6.57;;
69894;SDS011;57172;52.034;5.090;2023-04-15T00:52:38;11.73;;;6.90;;
69894;SDS011;57172;52.034;5.090;2023-04-15T00:55:06;12.10;;;6.75;;
69894;SDS011;57172;52.034;5.090;2023-04-15T00:57:34;12.23;;;7.07;;
69894;SDS011;57172;52.034;5.090;2023-04-15T01:00:02;12.77;;;7.03;;
69894;SDS011;57172;52.034;5.090;2023-04-15T01:02:30;15.43;;;7.10;;
69894;SDS011;57172;52.034;5.090;2023-04-15T01:05:00;11.48;;;6.30;;
69894;SDS011;57172;52.034;5.090;2023-04-15T01:07:29;12.02;;;6.68;;
69894;SDS011;57172;52.034;5.090;2023-04-15T01:09:57;13.18;;;6.78;;
69894;SDS011;57172;52.034;5.090;2023-04-15T01:12:25;11.80;;;6.57;;
69894;SDS011;57172;52.034;5.090;2023-04-15T01:14:53;10.88;;;6.68;;
69894;SDS011;57172;52.034;5.090;2023-04-15T01:17:20;12.50;;;7.07;;
69894;SDS011;57172;52.034;5.090;2023-04-15T01:19:47;14.07;;;7.22;;
69894;SDS011;57172;52.034;5.090;2023-04-15T01:22:14;16.73;;;7.50;;
69894;SDS011;57172;52.034;5.090;2023-04-15T01:24:43;16.87;;;7.97;;
69894;SDS011;57172;52.034;5.090;2023-04-15T01:27:21;17.30;;;8.00;;
69894;SDS011;57172;52.034;5.090;2023-04-15T01:29:48;13.40;;;7.60;;
69894;SDS011;57172;52.034;5.090;2023-04-15T01:32:15;13.63;;;7.88;;
69894;SDS011;57172;52.034;5.090;2023-04-15T01:34:42;15.88;;;7.78;;
69894;SDS011;57172;52.034;5.090;2023-04-15T01:37:09;14.47;;;8.20;;
69894;SDS011;57172;52.034;5.090;2023-04-15T01:39:36;14.57;;;8.02;;
69894;SDS011;57172;52.034;5.090;2023-04-15T01:42:04;15.13;;;7.35;;
69894;SDS011;57172;52.034;5.090;2023-04-15T01:44:32;15.32;;;8.00;;
69894;SDS011;57172;52.034;5.090;2023-04-15T01:46:59;17.27;;;7.75;;
69894;SDS011;57172;52.034;5.090;2023-04-15T01:49:26;12.67;;;7.50;;
69894;SDS011;57172;52.034;5.090;2023-04-15T01:51:52;19.65;;;7.75;;
69894;SDS011;57172;52.034;5.090;2023-04-15T01:54:20;16.30;;;7.43;;
69894;SDS011;57172;52.034;5.090;2023-04-15T01:56:47;16.27;;;7.80;;
69894;SDS011;57172;52.034;5.090;2023-04-15T01:59:13;13.20;;;7.50;;
69894;SDS011;57172;52.034;5.090;2023-04-15T02:01:40;16.98;;;7.40;;
69894;SDS011;57172;52.034;5.090;2023-04-15T02:04:07;14.82;;;7.32;;
69894;SDS011;57172;52.034;5.090;2023-04-15T02:06:42;14.93;;;7.30;;
69894;SDS011;57172;52.034;5.090;2023-04-15T02:09:10;13.88;;;7.72;;
69894;SDS011;57172;52.034;5.090;2023-04-15T02:11:37;12.98;;;7.18;;
69894;SDS011;57172;52.034;5.090;2023-04-15T02:14:04;11.53;;;6.97;;
69894;SDS011;57172;52.034;5.090;2023-04-15T02:16:31;12.95;;;6.97;;
69894;SDS011;57172;52.034;5.090;2023-04-15T02:18:59;16.17;;;7.10;;
69894;SDS011;57172;52.034;5.090;2023-04-15T02:21:26;13.88;;;7.50;;
69894;SDS011;57172;52.034;5.090;2023-04-15T02:23:53;12.90;;;7.03;;
69894;SDS011;57172;52.034;5.090;2023-04-15T02:26:21;13.73;;;7.40;;
69894;SDS011;57172;52.034;5.090;2023-04-15T02:28:48;13.60;;;7.40;;
69894;SDS011;57172;52.034;5.090;2023-04-15T02:31:16;12.00;;;7.22;;
69894;SDS011;57172;52.034;5.090;2023-04-15T02:33:43;12.75;;;7.28;;
69894;SDS011;57172;52.034;5.090;2023-04-15T02:36:10;12.88;;;6.90;;
69894;SDS011;57172;52.034;5.090;2023-04-15T02:38:37;13.75;;;7.07;;
69894;SDS011;57172;52.034;5.090;2023-04-15T02:41:10;13.02;;;7.28;;
69894;SDS011;57172;52.034;5.090;2023-04-15T02:43:37;13.50;;;6.72;;
69894;SDS011;57172;52.034;5.090;2023-04-15T02:46:06;15.68;;;6.85;;
69894;SDS011;57172;52.034;5.090;2023-04-15T02:48:33;14.55;;;7.18;;
69894;SDS011;57172;52.034;5.090;2023-04-15T02:51:12;12.63;;;6.90;;
69894;SDS011;57172;52.034;5.090;2023-04-15T02:53:45;12.43;;;7.20;;
69894;SDS011;57172;52.034;5.090;2023-04-15T02:56:13;13.20;;;6.78;;
69894;SDS011;57172;52.034;5.090;2023-04-15T02:58:43;13.18;;;7.22;;
69894;SDS011;57172;52.034;5.090;2023-04-15T03:01:11;14.73;;;7.25;;
69894;SDS011;57172;52.034;5.090;2023-04-15T03:03:39;11.17;;;6.70;;
69894;SDS011;57172;52.034;5.090;2023-04-15T03:06:06;12.73;;;7.22;;
69894;SDS011;57172;52.034;5.090;2023-04-15T03:08:34;14.65;;;7.45;;
69894;SDS011;57172;52.034;5.090;2023-04-15T03:11:01;13.35;;;7.43;;
69894;SDS011;57172;52.034;5.090;2023-04-15T03:13:30;12.80;;;7.20;;
69894;SDS011;57172;52.034;5.090;2023-04-15T03:16:00;13.00;;;7.30;;
69894;SDS011;57172;52.034;5.090;2023-04-15T03:18:29;14.95;;;7.57;;
69894;SDS011;57172;52.034;5.090;2023-04-15T03:21:00;13.68;;;7.25;;
69894;SDS011;57172;52.034;5.090;2023-04-15T03:23:29;12.52;;;7.15;;
69894;SDS011;57172;52.034;5.090;2023-04-15T03:26:00;11.80;;;7.20;;
69894;SDS011;57172;52.034;5.090;2023-04-15T03:28:28;13.60;;;7.43;;
69894;SDS011;57172;52.034;5.090;2023-04-15T03:30:57;14.05;;;7.18;;
69894;SDS011;57172;52.034;5.090;2023-04-15T03:33:24;13.02;;;7.32;;
69894;SDS011;57172;52.034;5.090;2023-04-15T03:35:51;12.50;;;7.10;;
69894;SDS011;57172;52.034;5.090;2023-04-15T03:38:18;14.05;;;7.72;;
69894;SDS011;57172;52.034;5.090;2023-04-15T03:40:45;14.53;;;7.00;;
69894;SDS011;57172;52.034;5.090;2023-04-15T03:43:12;14.05;;;7.40;;
69894;SDS011;57172;52.034;5.090;2023-04-15T03:45:39;14.30;;;7.32;;
69894;SDS011;57172;52.034;5.090;2023-04-15T03:48:06;12.60;;;7.47;;
69894;SDS011;57172;52.034;5.090;2023-04-15T03:50:43;13.95;;;7.22;;
69894;SDS011;57172;52.034;5.090;2023-04-15T03:53:11;12.93;;;7.22;;
69894;SDS011;57172;52.034;5.090;2023-04-15T03:55:38;11.93;;;7.45;;
69894;SDS011;57172;52.034;5.090;2023-04-15T03:58:05;11.82;;;7.45;;
69894;SDS011;57172;52.034;5.090;2023-04-15T04:00:32;11.85;;;7.15;;
69894;SDS011;57172;52.034;5.090;2023-04-15T04:02:59;11.98;;;7.03;;
69894;SDS011;57172;52.034;5.090;2023-04-15T04:05:26;11.77;;;7.15;;
69894;SDS011;57172;52.034;5.090;2023-04-15T04:07:52;13.77;;;7.57;;
69894;SDS011;57172;52.034;5.090;2023-04-15T04:10:19;12.77;;;7.28;;
69894;SDS011;57172;52.034;5.090;2023-04-15T04:12:46;12.68;;;7.53;;
69894;SDS011;57172;52.034;5.090;2023-04-15T04:15:13;11.95;;;7.32;;
69894;SDS011;57172;52.034;5.090;2023-04-15T04:17:41;14.57;;;6.90;;
69894;SDS011;57172;52.034;5.090;2023-04-15T04:20:08;14.77;;;7.15;;
69894;SDS011;57172;52.034;5.090;2023-04-15T04:22:36;13.23;;;7.25;;
69894;SDS011;57172;52.034;5.090;2023-04-15T04:25:06;12.75;;;7.05;;
69894;SDS011;57172;52.034;5.090;2023-04-15T04:27:35;12.70;;;7.20;;
69894;SDS011;57172;52.034;5.090;2023-04-15T04:30:02;14.80;;;7.57;;
69894;SDS011;57172;52.034;5.090;2023-04-15T04:32:30;13.65;;;7.53;;
69894;SDS011;57172;52.034;5.090;2023-04-15T04:34:57;13.65;;;7.72;;
69894;SDS011;57172;52.034;5.090;2023-04-15T04:37:23;14.77;;;7.57;;
69894;SDS011;57172;52.034;5.090;2023-04-15T04:39:50;15.98;;;7.60;;
69894;SDS011;57172;52.034;5.090;2023-04-15T04:42:17;13.45;;;7.53;;
69894;SDS011;57172;52.034;5.090;2023-04-15T04:44:44;13.65;;;7.20;;
69894;SDS011;57172;52.034;5.090;2023-04-15T04:47:11;15.18;;;7.72;;
69894;SDS011;57172;52.034;5.090;2023-04-15T04:49:39;14.25;;;7.47;;
69894;SDS011;57172;52.034;5.090;2023-04-15T04:52:06;14.20;;;7.40;;
69894;SDS011;57172;52.034;5.090;2023-04-15T04:54:33;13.68;;;7.60;;
69894;SDS011;57172;52.034;5.090;2023-04-15T04:57:00;14.82;;;8.00;;
69894;SDS011;57172;52.034;5.090;2023-04-15T04:59:26;13.40;;;7.65;;
69894;SDS011;57172;52.034;5.090;2023-04-15T05:01:53;14.05;;;8.18;;
69894;SDS011;57172;52.034;5.090;2023-04-15T05:04:21;15.93;;;8.20;;
69894;SDS011;57172;52.034;5.090;2023-04-15T05:06:48;16.80;;;8.00;;
69894;SDS011;57172;52.034;5.090;2023-04-15T05:09:14;13.65;;;7.72;;
69894;SDS011;57172;52.034;5.090;2023-04-15T05:11:41;17.00;;;8.00;;
69894;SDS011;57172;52.034;5.090;2023-04-15T05:14:08;13.48;;;7.80;;
69894;SDS011;57172;52.034;5.090;2023-04-15T05:16:35;14.85;;;8.20;;
69894;SDS011;57172;52.034;5.090;2023-04-15T05:19:02;14.48;;;8.13;;
69894;SDS011;57172;52.034;5.090;2023-04-15T05:21:29;22.02;;;8.40;;
69894;SDS011;57172;52.034;5.090;2023-04-15T05:23:56;15.32;;;7.88;;
69894;SDS011;57172;52.034;5.090;2023-04-15T05:26:23;15.98;;;7.70;;
69894;SDS011;57172;52.034;5.090;2023-04-15T05:28:50;13.90;;;8.02;;
69894;SDS011;57172;52.034;5.090;2023-04-15T05:31:17;13.10;;;8.00;;
69894;SDS011;57172;52.034;5.090;2023-04-15T05:33:44;15.27;;;8.23;;
69894;SDS011;57172;52.034;5.090;2023-04-15T05:36:10;16.88;;;8.40;;
69894;SDS011;57172;52.034;5.090;2023-04-15T05:38:37;13.65;;;7.72;;
69894;SDS011;57172;52.034;5.090;2023-04-15T05:41:04;17.25;;;8.38;;
69894;SDS011;57172;52.034;5.090;2023-04-15T05:43:31;15.50;;;8.17;;
69894;SDS011;57172;52.034;5.090;2023-04-15T05:45:58;15.55;;;8.35;;
69894;SDS011;57172;52.034;5.090;2023-04-15T05:48:25;16.60;;;8.07;;
69894;SDS011;57172;52.034;5.090;2023-04-15T05:50:52;14.75;;;8.15;;
69894;SDS011;57172;52.034;5.090;2023-04-15T05:53:19;15.95;;;8.48;;
69894;SDS011;57172;52.034;5.090;2023-04-15T05:55:47;15.63;;;8.50;;
69894;SDS011;57172;52.034;5.090;2023-04-15T05:58:14;14.48;;;8.23;;
69894;SDS011;57172;52.034;5.090;2023-04-15T06:00:41;15.93;;;8.25;;
69894;SDS011;57172;52.034;5.090;2023-04-15T06:03:07;16.30;;;8.30;;
69894;SDS011;57172;52.034;5.090;2023-04-15T06:05:34;12.48;;;7.93;;
69894;SDS011;57172;52.034;5.090;2023-04-15T06:08:01;15.23;;;7.97;;
69894;SDS011;57172;52.034;5.090;2023-04-15T06:10:28;14.70;;;8.10;;
69894;SDS011;57172;52.034;5.090;2023-04-15T06:12:56;13.50;;;7.72;;
69894;SDS011;57172;52.034;5.090;2023-04-15T06:15:23;14.07;;;8.23;;
69894;SDS011;57172;52.034;5.090;2023-04-15T06:17:49;14.30;;;8.00;;
69894;SDS011;57172;52.034;5.090;2023-04-15T06:20:16;13.87;;;8.47;;
69894;SDS011;57172;52.034;5.090;2023-04-15T06:22:44;13.93;;;7.80;;
69894;SDS011;57172;52.034;5.090;2023-04-15T06:25:11;15.05;;;8.00;;
69894;SDS011;57172;52.034;5.090;2023-04-15T06:27:37;12.32;;;7.60;;
69894;SDS011;57172;52.034;5.090;2023-04-15T06:30:05;13.77;;;7.93;;
69894;SDS011;57172;52.034;5.090;2023-04-15T06:32:32;13.73;;;7.73;;
69894;SDS011;57172;52.034;5.090;2023-04-15T06:34:59;14.82;;;8.10;;
69894;SDS011;57172;52.034;5.090;2023-04-15T06:37:26;14.13;;;8.07;;
69894;SDS011;57172;52.034;5.090;2023-04-15T06:39:53;13.95;;;7.70;;
69894;SDS011;57172;52.034;5.090;2023-04-15T06:42:20;13.52;;;7.72;;
69894;SDS011;57172;52.034;5.090;2023-04-15T06:44:48;15.83;;;7.87;;
69894;SDS011;57172;52.034;5.090;2023-04-15T06:47:15;14.95;;;8.02;;
69894;SDS011;57172;52.034;5.090;2023-04-15T06:49:42;14.40;;;8.07;;
69894;SDS011;57172;52.034;5.090;2023-04-15T06:52:09;13.18;;;7.82;;
69894;SDS011;57172;52.034;5.090;2023-04-15T06:54:36;14.02;;;7.75;;
69894;SDS011;57172;52.034;5.090;2023-04-15T06:57:03;14.33;;;7.80;;
69894;SDS011;57172;52.034;5.090;2023-04-15T06:59:30;15.35;;;7.93;;
69894;SDS011;57172;52.034;5.090;2023-04-15T07:01:57;14.23;;;8.10;;
69894;SDS011;57172;52.034;5.090;2023-04-15T07:04:24;14.82;;;8.20;;
69894;SDS011;57172;52.034;5.090;2023-04-15T07:06:50;14.10;;;8.35;;
69894;SDS011;57172;52.034;5.090;2023-04-15T07:09:17;13.60;;;7.70;;
69894;SDS011;57172;52.034;5.090;2023-04-15T07:11:45;14.10;;;8.18;;
69894;SDS011;57172;52.034;5.090;2023-04-15T07:14:11;12.45;;;7.80;;
69894;SDS011;57172;52.034;5.090;2023-04-15T07:16:38;15.68;;;8.07;;
69894;SDS011;57172;52.034;5.090;2023-04-15T07:19:05;13.30;;;8.10;;
69894;SDS011;57172;52.034;5.090;2023-04-15T07:21:32;13.60;;;8.10;;
69894;SDS011;57172;52.034;5.090;2023-04-15T07:23:59;12.80;;;7.80;;
69894;SDS011;57172;52.034;5.090;2023-04-15T07:26:26;13.30;;;7.90;;
69894;SDS011;57172;52.034;5.090;2023-04-15T07:28:53;14.82;;;8.20;;
69894;SDS011;57172;52.034;5.090;2023-04-15T07:31:20;14.20;;;7.65;;
69894;SDS011;57172;52.034;5.090;2023-04-15T07:33:47;13.50;;;7.57;;
69894;SDS011;57172;52.034;5.090;2023-04-15T07:36:14;13.73;;;8.20;;
69894;SDS011;57172;52.034;5.090;2023-04-15T07:38:41;12.75;;;7.50;;
69894;SDS011;57172;52.034;5.090;2023-04-15T07:41:08;12.15;;;7.47;;
69894;SDS011;57172;52.034;5.090;2023-04-15T07:43:35;10.80;;;6.63;;
69894;SDS011;57172;52.034;5.090;2023-04-15T07:46:02;12.60;;;6.53;;
69894;SDS011;57172;52.034;5.090;2023-04-15T07:48:29;10.27;;;6.07;;
69894;SDS011;57172;52.034;5.090;2023-04-15T07:50:56;10.60;;;5.97;;
69894;SDS011;57172;52.034;5.090;2023-04-15T07:53:24;11.70;;;5.57;;
69894;SDS011;57172;52.034;5.090;2023-04-15T07:55:51;9.18;;;5.20;;
69894;SDS011;57172;52.034;5.090;2023-04-15T07:58:18;12.17;;;5.40;;
69894;SDS011;57172;52.034;5.090;2023-04-15T08:00:45;7.68;;;5.18;;
69894;SDS011;57172;52.034;5.090;2023-04-15T08:03:12;8.27;;;4.90;;
69894;SDS011;57172;52.034;5.090;2023-04-15T08:05:39;8.30;;;4.90;;
69894;SDS011;57172;52.034;5.090;2023-04-15T08:08:06;10.85;;;4.85;;
69894;SDS011;57172;52.034;5.090;2023-04-15T08:10:33;8.80;;;5.30;;
69894;SDS011;57172;52.034;5.090;2023-04-15T08:13:00;12.73;;;5.30;;
69894;SDS011;57172;52.034;5.090;2023-04-15T08:15:27;7.45;;;5.20;;
69894;SDS011;57172;52.034;5.090;2023-04-15T08:17:54;7.05;;;5.00;;
69894;SDS011;57172;52.034;5.090;2023-04-15T08:20:21;8.10;;;5.40;;
69894;SDS011;57172;52.034;5.090;2023-04-15T08:22:48;8.33;;;5.20;;
69894;SDS011;57172;52.034;5.090;2023-04-15T08:25:17;9.75;;;4.68;;
69894;SDS011;57172;52.034;5.090;2023-04-15T08:27:45;8.93;;;4.85;;
69894;SDS011;57172;52.034;5.090;2023-04-15T08:30:12;9.07;;;4.60;;
69894;SDS011;57172;52.034;5.090;2023-04-15T08:32:41;8.50;;;4.68;;
69894;SDS011;57172;52.034;5.090;2023-04-15T08:35:11;8.80;;;4.87;;
69894;SDS011;57172;52.034;5.090;2023-04-15T08:37:39;6.72;;;4.90;;
69894;SDS011;57172;52.034;5.090;2023-04-15T08:40:05;8.80;;;5.13;;
69894;SDS011;57172;52.034;5.090;2023-04-15T08:42:35;9.88;;;5.50;;
69894;SDS011;57172;52.034;5.090;2023-04-15T08:45:08;9.18;;;5.20;;
69894;SDS011;57172;52.034;5.090;2023-04-15T08:47:38;7.53;;;4.87;;
69894;SDS011;57172;52.034;5.090;2023-04-15T08:50:07;8.70;;;5.30;;
69894;SDS011;57172;52.034;5.090;2023-04-15T08:52:35;10.05;;;5.32;;
69894;SDS011;57172;52.034;5.090;2023-04-15T08:55:03;7.80;;;4.90;;
69894;SDS011;57172;52.034;5.090;2023-04-15T08:57:32;7.32;;;4.75;;
69894;SDS011;57172;52.034;5.090;2023-04-15T08:59:59;7.90;;;4.97;;
69894;SDS011;57172;52.034;5.090;2023-04-15T09:02:31;7.35;;;4.60;;
69894;SDS011;57172;52.034;5.090;2023-04-15T09:04:58;6.78;;;4.70;;
69894;SDS011;57172;52.034;5.090;2023-04-15T09:07:25;8.88;;;5.00;;
69894;SDS011;57172;52.034;5.090;2023-04-15T09:09:52;6.93;;;4.63;;
69894;SDS011;57172;52.034;5.090;2023-04-15T09:12:19;9.70;;;4.40;;
69894;SDS011;57172;52.034;5.090;2023-04-15T09:14:47;9.02;;;4.00;;
69894;SDS011;57172;52.034;5.090;2023-04-15T09:17:17;7.90;;;4.10;;
69894;SDS011;57172;52.034;5.090;2023-04-15T09:19:47;9.48;;;4.15;;
69894;SDS011;57172;52.034;5.090;2023-04-15T09:22:14;8.82;;;3.80;;
69894;SDS011;57172;52.034;5.090;2023-04-15T09:24:41;9.10;;;3.90;;
69894;SDS011;57172;52.034;5.090;2023-04-15T09:27:08;6.63;;;3.97;;
69894;SDS011;57172;52.034;5.090;2023-04-15T09:29:36;8.00;;;4.40;;
69894;SDS011;57172;52.034;5.090;2023-04-15T09:32:13;7.28;;;4.18;;
69894;SDS011;57172;52.034;5.090;2023-04-15T09:34:41;6.55;;;3.58;;
69894;SDS011;57172;52.034;5.090;2023-04-15T09:37:08;4.63;;;3.20;;
69894;SDS011;57172;52.034;5.090;2023-04-15T09:39:46;5.22;;;3.20;;
69894;SDS011;57172;52.034;5.090;2023-04-15T09:42:15;6.82;;;3.35;;
69894;SDS011;57172;52.034;5.090;2023-04-15T09:44:49;6.28;;;2.80;;
69894;SDS011;57172;52.034;5.090;2023-04-15T09:47:30;5.15;;;3.15;;
69894;SDS011;57172;52.034;5.090;2023-04-15T09:49:58;4.73;;;3.00;;
69894;SDS011;57172;52.034;5.090;2023-04-15T09:52:26;7.85;;;3.30;;
69894;SDS011;57172;52.034;5.090;2023-04-15T09:54:55;5.97;;;3.13;;
69894;SDS011;57172;52.034;5.090;2023-04-15T09:57:23;5.80;;;3.38;;
69894;SDS011;57172;52.034;5.090;2023-04-15T09:59:50;6.55;;;3.40;;
69894;SDS011;57172;52.034;5.090;2023-04-15T10:02:18;5.33;;;3.43;;
69894;SDS011;57172;52.034;5.090;2023-04-15T10:04:48;8.13;;;3.60;;
69894;SDS011;57172;52.034;5.090;2023-04-15T10:07:17;8.23;;;4.05;;
69894;SDS011;57172;52.034;5.090;2023-04-15T10:09:48;5.90;;;3.63;;
69894;SDS011;57172;52.034;5.090;2023-04-15T10:12:18;8.35;;;4.40;;
69894;SDS011;57172;52.034;5.090;2023-04-15T10:14:47;7.30;;;4.30;;
69894;SDS011;57172;52.034;5.090;2023-04-15T10:17:19;6.13;;;4.05;;
69894;SDS011;57172;52.034;5.090;2023-04-15T10:19:48;10.05;;;4.10;;
69894;SDS011;57172;52.034;5.090;2023-04-15T10:22:18;8.20;;;4.15;;
69894;SDS011;57172;52.034;5.090;2023-04-15T10:24:45;5.82;;;3.50;;
69894;SDS011;57172;52.034;5.090;2023-04-15T10:27:12;4.93;;;3.43;;
69894;SDS011;57172;52.034;5.090;2023-04-15T10:29:39;5.65;;;3.58;;
69894;SDS011;57172;52.034;5.090;2023-04-15T10:32:07;4.70;;;2.90;;
69894;SDS011;57172;52.034;5.090;2023-04-15T10:34:35;5.07;;;2.60;;
69894;SDS011;57172;52.034;5.090;2023-04-15T10:37:03;4.68;;;2.75;;
69894;SDS011;57172;52.034;5.090;2023-04-15T10:44:59;5.85;;;2.70;;
69894;SDS011;57172;52.034;5.090;2023-04-15T10:47:26;6.57;;;3.22;;
69894;SDS011;57172;52.034;5.090;2023-04-15T10:49:57;5.85;;;2.70;;
69894;SDS011;57172;52.034;5.090;2023-04-15T10:52:26;6.27;;;2.50;;
69894;SDS011;57172;52.034;5.090;2023-04-15T10:55:11;6.13;;;2.88;;
69894;SDS011;57172;52.034;5.090;2023-04-15T10:57:41;5.60;;;2.95;;
69894;SDS011;57172;52.034;5.090;2023-04-15T11:00:12;5.82;;;3.13;;
69894;SDS011;57172;52.034;5.090;2023-04-15T11:08:07;7.47;;;3.42;;
69894;SDS011;57172;52.034;5.090;2023-04-15T11:15:37;5.20;;;3.28;;
69894;SDS011;57172;52.034;5.090;2023-04-15T11:18:17;5.30;;;3.60;;
69894;SDS011;57172;52.034;5.090;2023-04-15T11:20:46;5.25;;;3.42;;
69894;SDS011;57172;52.034;5.090;2023-04-15T11:23:26;5.63;;;3.42;;
69894;SDS011;57172;52.034;5.090;2023-04-15T11:26:12;4.68;;;3.40;;
69894;SDS011;57172;52.034;5.090;2023-04-15T11:28:40;6.20;;;3.50;;
69894;SDS011;57172;52.034;5.090;2023-04-15T11:33:52;5.35;;;3.45;;
69894;SDS011;57172;52.034;5.090;2023-04-15T11:36:22;6.07;;;3.58;;
69894;SDS011;57172;52.034;5.090;2023-04-15T11:38:52;6.05;;;3.92;;
69894;SDS011;57172;52.034;5.090;2023-04-15T11:41:19;5.80;;;3.60;;
69894;SDS011;57172;52.034;5.090;2023-04-15T11:43:50;4.97;;;3.80;;
69894;SDS011;57172;52.034;5.090;2023-04-15T11:46:17;5.45;;;3.97;;
69894;SDS011;57172;52.034;5.090;2023-04-15T11:48:45;5.75;;;3.60;;
69894;SDS011;57172;52.034;5.090;2023-04-15T11:51:13;6.15;;;3.70;;
69894;SDS011;57172;52.034;5.090;2023-04-15T11:53:47;5.72;;;3.70;;
69894;SDS011;57172;52.034;5.090;2023-04-15T11:56:18;7.23;;;3.07;;
69894;SDS011;57172;52.034;5.090;2023-04-15T11:58:47;6.00;;;3.08;;
69894;SDS011;57172;52.034;5.090;2023-04-15T12:01:36;3.50;;;2.78;;
69894;SDS011;57172;52.034;5.090;2023-04-15T12:04:14;4.82;;;2.60;;
69894;SDS011;57172;52.034;5.090;2023-04-15T12:06:51;3.70;;;2.40;;
69894;SDS011;57172;52.034;5.090;2023-04-15T12:09:18;4.60;;;2.30;;
69894;SDS011;57172;52.034;5.090;2023-04-15T12:11:55;4.28;;;2.60;;
69894;SDS011;57172;52.034;5.090;2023-04-15T12:14:27;4.45;;;2.40;;
69894;SDS011;57172;52.034;5.090;2023-04-15T12:16:58;3.78;;;2.45;;
69894;SDS011;57172;52.034;5.090;2023-04-15T12:22:00;4.63;;;2.70;;
69894;SDS011;57172;52.034;5.090;2023-04-15T12:24:32;4.80;;;2.78;;
69894;SDS011;57172;52.034;5.090;2023-04-15T12:27:01;3.88;;;2.50;;
69894;SDS011;57172;52.034;5.090;2023-04-15T12:29:35;5.38;;;2.50;;
69894;SDS011;57172;52.034;5.090;2023-04-15T12:32:14;4.80;;;2.80;;
69894;SDS011;57172;52.034;5.090;2023-04-15T12:34:44;4.27;;;2.73;;
69894;SDS011;57172;52.034;5.090;2023-04-15T12:37:17;4.75;;;2.75;;
69894;SDS011;57172;52.034;5.090;2023-04-15T12:39:46;4.72;;;2.90;;
69894;SDS011;57172;52.034;5.090;2023-04-15T12:42:14;5.38;;;3.00;;
69894;SDS011;57172;52.034;5.090;2023-04-15T12:44:42;4.55;;;2.70;;
69894;SDS011;57172;52.034;5.090;2023-04-15T12:47:09;6.00;;;2.80;;
69894;SDS011;57172;52.034;5.090;2023-04-15T12:49:37;4.65;;;2.85;;
69894;SDS011;57172;52.034;5.090;2023-04-15T12:52:04;4.47;;;2.63;;
69894;SDS011;57172;52.034;5.090;2023-04-15T12:54:32;6.05;;;2.70;;
69894;SDS011;57172;52.034;5.090;2023-04-15T12:56:59;5.72;;;2.70;;
69894;SDS011;57172;52.034;5.090;2023-04-15T12:59:26;5.10;;;2.83;;
69894;SDS011;57172;52.034;5.090;2023-04-15T13:01:53;4.75;;;2.90;;
69894;SDS011;57172;52.034;5.090;2023-04-15T13:04:21;5.20;;;2.63;;
69894;SDS011;57172;52.034;5.090;2023-04-15T13:06:48;4.55;;;2.92;;
69894;SDS011;57172;52.034;5.090;2023-04-15T13:09:15;5.78;;;3.10;;
69894;SDS011;57172;52.034;5.090;2023-04-15T13:11:42;5.33;;;3.00;;
69894;SDS011;57172;52.034;5.090;2023-04-15T13:14:09;5.05;;;3.00;;
69894;SDS011;57172;52.034;5.090;2023-04-15T13:16:38;6.20;;;2.90;;
69894;SDS011;57172;52.034;5.090;2023-04-15T13:19:06;5.57;;;2.90;;
69894;SDS011;57172;52.034;5.090;2023-04-15T13:21:33;6.78;;;2.75;;
69894;SDS011;57172;52.034;5.090;2023-04-15T13:24:01;4.37;;;2.63;;
69894;SDS011;57172;52.034;5.090;2023-04-15T13:26:29;4.85;;;2.50;;
69894;SDS011;57172;52.034;5.090;2023-04-15T13:28:57;4.70;;;2.60;;
69894;SDS011;57172;52.034;5.090;2023-04-15T13:31:23;6.40;;;2.70;;
69894;SDS011;57172;52.034;5.090;2023-04-15T13:33:51;4.90;;;2.70;;
69894;SDS011;57172;52.034;5.090;2023-04-15T13:36:18;4.47;;;2.30;;
69894;SDS011;57172;52.034;5.090;2023-04-15T13:38:45;4.45;;;1.90;;
69894;SDS011;57172;52.034;5.090;2023-04-15T13:41:15;4.00;;;2.10;;
69894;SDS011;57172;52.034;5.090;2023-04-15T13:43:42;3.40;;;1.90;;
69894;SDS011;57172;52.034;5.090;2023-04-15T13:46:09;6.72;;;1.80;;
69894;SDS011;57172;52.034;5.090;2023-04-15T13:48:36;4.27;;;1.83;;
69894;SDS011;57172;52.034;5.090;2023-04-15T13:51:03;3.67;;;1.80;;
69894;SDS011;57172;52.034;5.090;2023-04-15T13:53:30;6.70;;;1.80;;
69894;SDS011;57172;52.034;5.090;2023-04-15T13:56:05;2.83;;;1.70;;
69894;SDS011;57172;52.034;5.090;2023-04-15T13:58:33;5.10;;;1.80;;
69894;SDS011;57172;52.034;5.090;2023-04-15T14:00:59;3.87;;;1.80;;
69894;SDS011;57172;52.034;5.090;2023-04-15T14:03:29;3.95;;;1.80;;
69894;SDS011;57172;52.034;5.090;2023-04-15T14:05:57;3.30;;;1.50;;
69894;SDS011;57172;52.034;5.090;2023-04-15T14:08:24;3.72;;;1.60;;
69894;SDS011;57172;52.034;5.090;2023-04-15T14:10:51;4.05;;;1.50;;
69894;SDS011;57172;52.034;5.090;2023-04-15T14:13:18;5.20;;;1.60;;
69894;SDS011;57172;52.034;5.090;2023-04-15T14:15:45;4.05;;;1.58;;
69894;SDS011;57172;52.034;5.090;2023-04-15T14:18:12;9.55;;;1.90;;
69894;SDS011;57172;52.034;5.090;2023-04-15T14:20:39;7.28;;;1.70;;
69894;SDS011;57172;52.034;5.090;2023-04-15T14:23:06;4.95;;;1.70;;
69894;SDS011;57172;52.034;5.090;2023-04-15T14:25:33;3.53;;;1.70;;
69894;SDS011;57172;52.034;5.090;2023-04-15T14:28:00;2.72;;;1.60;;
69894;SDS011;57172;52.034;5.090;2023-04-15T14:30:28;3.70;;;1.65;;
69894;SDS011;57172;52.034;5.090;2023-04-15T14:32:56;3.53;;;1.70;;
69894;SDS011;57172;52.034;5.090;2023-04-15T14:35:23;4.40;;;1.65;;
69894;SDS011;57172;52.034;5.090;2023-04-15T14:37:52;6.27;;;1.90;;
69894;SDS011;57172;52.034;5.090;2023-04-15T14:40:19;4.40;;;1.70;;
69894;SDS011;57172;52.034;5.090;2023-04-15T14:42:46;2.97;;;1.60;;
69894;SDS011;57172;52.034;5.090;2023-04-15T14:45:13;3.38;;;1.80;;
69894;SDS011;57172;52.034;5.090;2023-04-15T14:47:40;3.47;;;1.70;;
69894;SDS011;57172;52.034;5.090;2023-04-15T14:50:07;6.40;;;1.60;;
69894;SDS011;57172;52.034;5.090;2023-04-15T14:52:35;4.50;;;2.13;;
69894;SDS011;57172;52.034;5.090;2023-04-15T14:55:05;5.55;;;1.80;;
69894;SDS011;57172;52.034;5.090;2023-04-15T14:57:33;4.85;;;2.00;;
69894;SDS011;57172;52.034;5.090;2023-04-15T15:00:00;5.65;;;1.90;;
69894;SDS011;57172;52.034;5.090;2023-04-15T15:02:27;3.80;;;1.50;;
69894;SDS011;57172;52.034;5.090;2023-04-15T15:05:04;5.80;;;1.80;;
69894;SDS011;57172;52.034;5.090;2023-04-15T15:07:32;5.35;;;1.80;;